Terminal Aerodrome Forecast
Issued by NWS Sterling, VA

Current Version | Previous Version | Text Only | Print | Product List | Glossary On
Versions: 1 2 3 4 5 6 7 8 9 10 11 12 13 14 15 16 17 18 19 20 21
000
FTUS41 KLWX 041729
TAFMRB
TAF
KMRB 041729Z 0418/0518 15004KT P6SM -SHRA VCTS OVC045CB
     FM041900 VRB03KT P6SM BKN040
     FM050400 00000KT 3SM BR BKN250
     FM050700 00000KT 1 1/2SM BR BKN250
     FM051000 00000KT 3SM BR BKN250
     FM051300 00000KT P6SM SCT250=

USA.gov is the U.S. government's official web portal to all federal, state and local government web resources and services.